X  Close Metar Aviation Weather Data     KGAI Montgomery County Airpark
Temperature
55°F Temperature
30°F Dewpoint
38% Humidity



Wind
12 MPH
19 KM/H
5 M/S
10 KTS



290°
WNW
Current Conditions

Partly Cloudy Partly Cloudy
Pressure 1021 (hPa) - 30.15 (inHg)
Visibility 10 (mile) - 16.1 (km)
Airport
Airport-code KGAI

Location: Montgomery County Airpark
Distance: 11 (mi)

Metar:
KGAI 221556Z AUTO 29010G15KT 10SM FEW060 13/M01 A3015 RMK AO2 SLP227 T01281006

Time: 04-22-2024 11:56 am EDT